Data for 12/02/2006

Time Sea-Level Adjusted Pressure Absolute Pressure Temperature Relative Humidity Dew Point   
(mb) (inHg) (mb) (inHg) (C) (F) (%) (C) (F)
00:05 1028 30.36 857 25.31 -8.7 16.3 83 -11.1 12.1
00:10 1028 30.36 857 25.31 -8.8 16.2 83 -11.2 11.8
00:15 1028 30.36 857 25.31 -8.9 16 84 -11.1 12
00:20 1028 30.36 857 25.31 -8.9 15.9 84 -11.2 11.9
00:25 1028 30.36 857 25.31 -9 15.9 84 -11.2 11.9
00:30 1028 30.36 857 25.31 -8.9 16 84 -11.1 12
00:35 1028 30.36 857 25.31 -8.9 16 83 -11.3 11.7
00:40 1028 30.36 857 25.31 -8.9 15.9 84 -11.2 11.8
00:45 1028 30.36 857 25.31 -8.9 16.1 83 -11.3 11.7
00:50 1028 30.36 857 25.31 -8.9 16 83 -11.2 11.8
00:55 1028 30.36 857 25.31 -8.9 16 83 -11.2 11.8
01:00 1028 30.36 857 25.31 -8.8 16.1 83 -11.2 11.9
01:05 1028 30.36 857 25.31 -8.9 16 83 -11.2 11.8
01:10 1028 30.36 857 25.31 -9 15.9 83 -11.3 11.6
01:15 1028 30.36 857 25.31 -9.1 15.7 84 -11.3 11.6
01:20 1028 30.36 857 25.31 -9.1 15.7 84 -11.3 11.7
01:25 1028 30.36 857 25.31 -9.1 15.7 84 -11.3 11.7
01:30 1028 30.36 857 25.31 -9.1 15.6 85 -11.2 11.8
01:35 1028 30.36 857 25.31 -9.1 15.6 84 -11.3 11.6
01:40 1028 30.36 857 25.31 -9.3 15.3 85 -11.4 11.4
01:45 1028 30.36 857 25.31 -9.3 15.3 84 -11.5 11.4
01:50 1028 30.36 858 25.34 -9.3 15.2 85 -11.5 11.4
01:55 1028 30.36 858 25.34 -9.3 15.3 84 -11.6 11.2
02:00 1028 30.36 858 25.34 -9.3 15.3 84 -11.6 11.2
02:05 1028 30.36 858 25.34 -9.4 15 84 -11.7 11
02:10 1028 30.36 858 25.34 -9.5 14.9 84 -11.7 11
02:15 1028 30.36 858 25.34 -9.5 15 84 -11.7 11
02:20 1029 30.39 858 25.34 -9.5 14.9 84 -11.7 10.9
02:25 1029 30.39 858 25.34 -9.4 15 84 -11.7 11
02:30 1029 30.39 858 25.34 -9.4 15 83 -11.8 10.8
02:35 1029 30.39 858 25.34 -9.4 15.1 84 -11.7 11
02:40 1029 30.39 858 25.34 -9.5 15 84 -11.7 10.9
02:45 1029 30.39 858 25.34 -9.5 14.9 84 -11.7 10.9
02:50 1029 30.39 858 25.34 -9.5 14.9 84 -11.7 10.9
02:55 1029 30.39 858 25.34 -9.6 14.8 84 -11.8 10.8
03:00 1029 30.39 858 25.34 -9.6 14.8 84 -11.8 10.7
03:05 1029 30.39 858 25.34 -9.7 14.5 85 -11.8 10.7
03:10 1029 30.39 858 25.34 -9.8 14.5 85 -11.8 10.7
03:15 1029 30.39 858 25.34 -9.7 14.5 85 -11.8 10.8
03:20 1029 30.39 858 25.34 -9.7 14.5 85 -11.8 10.8
03:25 1029 30.39 858 25.34 -9.8 14.3 85 -11.9 10.6
03:30 1029 30.39 858 25.34 -9.9 14.2 85 -11.9 10.6
03:35 1029 30.39 858 25.34 -10.1 13.9 86 -12 10.4
03:40 1029 30.39 858 25.34 -10.3 13.6 87 -12 10.4
03:45 1029 30.39 858 25.34 -10.3 13.4 88 -12 10.4
03:50 1029 30.39 858 25.34 -10.4 13.3 88 -12 10.4
03:55 1029 30.39 858 25.34 -10.3 13.5 88 -11.9 10.5
04:00 1029 30.39 858 25.34 -10.3 13.4 88 -11.9 10.5
04:05 1029 30.39 858 25.34 -10.5 13.1 89 -12 10.3
04:10 1029 30.39 858 25.34 -10.5 13.1 88 -12.1 10.2
04:15 1029 30.39 858 25.34 -10.6 13 89 -12.1 10.2
04:20 1029 30.39 858 25.34 -10.6 13 89 -12.1 10.2
04:25 1029 30.39 858 25.34 -10.4 13.2 89 -11.9 10.5
04:30 1029 30.39 858 25.34 -10.3 13.5 88 -11.9 10.6
04:35 1029 30.39 858 25.34 -10.2 13.7 88 -11.9 10.6
04:40 1029 30.39 858 25.34 -10.1 13.8 87 -11.9 10.6
04:45 1029 30.39 859 25.37 -10.1 13.7 87 -11.9 10.6
04:50 1029 30.39 859 25.37 -10.1 13.8 87 -11.9 10.7
04:55 1029 30.39 859 25.37 -10.1 13.8 87 -11.9 10.7
05:00 1029 30.39 859 25.37 -10.2 13.7 88 -11.9 10.6
05:05 1029 30.39 859 25.37 -10.5 13.2 88 -12 10.3
05:10 1029 30.39 859 25.37 -10.6 12.9 89 -12.1 10.2
05:15 1030 30.42 859 25.37 -10.6 12.8 89 -12.1 10.2
05:20 1030 30.42 859 25.37 -10.5 13.1 88 -12.1 10.3
05:25 1030 30.42 859 25.37 -10.5 13.1 88 -12.1 10.3
05:30 1030 30.42 859 25.37 -10.4 13.2 88 -12 10.3
05:35 1030 30.42 859 25.37 -10.5 13.1 88 -12.2 10.1
05:40 1030 30.42 859 25.37 -10.7 12.8 88 -12.2 10
05:45 1030 30.42 859 25.37 -10.7 12.8 89 -12.1 10.2
05:50 1030 30.42 859 25.37 -10.6 13 87 -12.3 9.9
05:55 1030 30.42 859 25.37 -10.9 12.3 88 -12.5 9.5
06:00 1030 30.42 859 25.37 -11.3 11.7 90 -12.7 9.1
06:05 1030 30.42 859 25.37 -11.3 11.8 90 -12.5 9.4
06:10 1030 30.42 859 25.37 -11.1 12.1 89 -12.5 9.4
06:15 1030 30.42 859 25.37 -11.2 11.8 89 -12.7 9.1
06:20 1030 30.42 859 25.37 -11.4 11.5 89 -12.8 8.9
06:25 1030 30.42 859 25.37 -11.5 11.2 90 -12.9 8.7
06:30 1030 30.42 859 25.37 -11.6 11.2 90 -12.9 8.7
06:35 1030 30.42 859 25.37 -11.7 11 90 -13 8.6
06:40 1030 30.42 859 25.37 -11.6 11.1 90 -12.9 8.8
06:45 1030 30.42 859 25.37 -11.5 11.4 90 -12.7 9.1
06:50 1030 30.42 859 25.37 -11.3 11.6 90 -12.7 9.2
06:55 1030 30.42 859 25.37 -11.3 11.6 90 -12.7 9.2
07:00 1030 30.42 859 25.37 -11.3 11.6 90 -12.7 9.1
07:05 1030 30.42 859 25.37 -11.3 11.6 89 -12.8 9
07:10 1030 30.42 859 25.37 -11.4 11.4 90 -12.8 8.9
07:15 1030 30.42 860 25.4 -11.5 11.3 90 -12.8 9
07:20 1030 30.42 860 25.4 -11.4 11.4 90 -12.7 9.1
07:25 1030 30.42 860 25.4 -11.4 11.4 91 -12.7 9.2
07:30 1030 30.42 860 25.4 -11.4 11.5 90 -12.7 9.1
07:35 1031 30.45 860 25.4 -11.6 11.2 90 -12.9 8.8
07:40 1031 30.45 860 25.4 -11.7 10.9 90 -13 8.6
07:45 1031 30.45 860 25.4 -11.9 10.6 90 -13.2 8.2
07:50 1031 30.45 860 25.4 -11.8 10.8 90 -13.1 8.4
07:55 1031 30.45 860 25.4 -11.7 11 89 -13.1 8.4
08:00 1031 30.45 860 25.4 -11.6 11.1 90 -13 8.7
08:05 1031 30.45 860 25.4 -11.5 11.2 90 -12.9 8.7
08:10 1031 30.45 860 25.4 -11.6 11.1 90 -13 8.7
08:15 1031 30.45 860 25.4 -11.5 11.3 90 -12.8 8.9
08:20 1031 30.45 860 25.4 -11.6 11.2 89 -13.1 8.4
08:25 1031 30.45 860 25.4 -11.8 10.8 89 -13.3 8.1
08:30 1031 30.45 860 25.4 -11.8 10.7 88 -13.4 7.8
08:35 1031 30.45 860 25.4 -11.8 10.7 88 -13.4 7.8
08:40 1031 30.45 860 25.4 -11.8 10.7 86 -13.7 7.4
08:45 1031 30.45 860 25.4 -11.7 10.9 86 -13.6 7.5
08:50 1031 30.45 860 25.4 -11.6 11.2 85 -13.7 7.4
08:55 1031 30.45 860 25.4 -11.6 11.2 85 -13.7 7.4
09:00 1031 30.45 860 25.4 -11.5 11.3 85 -13.6 7.5
09:05 1031 30.45 860 25.4 -11.2 11.9 84 -13.3 8
09:10 1031 30.45 860 25.4 -10.7 12.7 83 -13 8.6
09:15 1031 30.45 860 25.4 -10.6 13 84 -12.8 9
09:20 1031 30.45 861 25.43 -10.3 13.4 84 -12.6 9.4
09:25 1031 30.45 861 25.43 -10 13.9 82 -12.5 9.4
09:30 1031 30.45 861 25.43 -10.1 13.8 82 -12.6 9.4
09:35 1031 30.45 861 25.43 -10.2 13.7 82 -12.6 9.3
09:40 1031 30.45 861 25.43 -10 14.1 82 -12.5 9.5
09:45 1031 30.45 861 25.43 -9.7 14.6 80 -12.5 9.6
09:50 1031 30.45 861 25.43 -9.5 14.9 80 -12.4 9.7
09:55 1031 30.45 861 25.43 -9.5 14.9 79 -12.5 9.6
10:00 1032 30.47 861 25.43 -9.6 14.8 80 -12.4 9.7
10:05 1032 30.47 861 25.43 -9.4 15.1 78 -12.5 9.5
10:10 1032 30.47 861 25.43 -9.1 15.7 78 -12.2 10
10:15 1032 30.47 861 25.43 -8.8 16.1 78 -12.1 10.3
10:20 1032 30.47 861 25.43 -8.9 16 77 -12.2 10.1
10:25 1032 30.47 861 25.43 -9 15.8 77 -12.4 9.7
10:30 1032 30.47 861 25.43 -9 15.9 77 -12.2 10
10:35 1032 30.47 861 25.43 -9 15.7 78 -12.2 10
10:40 1032 30.47 861 25.43 -8.8 16.1 77 -12.2 10.1
10:45 1032 30.47 861 25.43 -8.7 16.3 76 -12.2 10.1
10:50 1032 30.47 861 25.43 -8.5 16.6 76 -12 10.3
10:55 1032 30.47 861 25.43 -8.2 17.3 75 -11.8 10.7
11:00 1032 30.47 861 25.43 -8 17.6 73 -12 10.4
11:05 1032 30.47 861 25.43 -8.3 17.1 75 -12 10.4
11:10 1032 30.47 861 25.43 -8.1 17.4 74 -11.9 10.6
11:15 1032 30.47 861 25.43 -7.6 18.4 72 -11.8 10.8
11:20 1032 30.47 861 25.43 -7.2 19.1 70 -11.7 10.9
11:25 1032 30.47 861 25.43 -7.3 18.9 71 -11.7 10.9
11:30 1032 30.47 861 25.43 -7.3 18.9 70 -11.8 10.8
11:35 1032 30.47 861 25.43 -7.3 18.9 71 -11.7 10.9
11:40 1032 30.47 861 25.43 -7.3 18.8 71 -11.8 10.8
11:45 1032 30.47 861 25.43 -7.7 18.2 73 -11.7 10.9
11:50 1032 30.47 861 25.43 -7.6 18.3 72 -11.9 10.7
11:55 1032 30.47 861 25.43 -7.8 18 73 -11.7 10.9
12:00 1032 30.47 861 25.43 -7.4 18.7 71 -11.8 10.7
12:05 1032 30.47 861 25.43 -7 19.3 69 -11.7 10.9
12:10 1031 30.45 861 25.43 -6.7 19.9 68 -11.7 11
12:15 1031 30.45 861 25.43 -6.9 19.6 68 -11.8 10.8
12:20 1031 30.45 861 25.43 -6.8 19.7 68 -11.8 10.8
12:25 1031 30.45 861 25.43 -6.9 19.5 69 -11.6 11.1
12:30 1031 30.45 861 25.43 -7.1 19.2 71 -11.6 11.2
12:35 1031 30.45 861 25.43 -7.1 19.3 70 -11.7 10.9
12:40 1031 30.45 861 25.43 -7.1 19.2 71 -11.6 11.1
12:45 1031 30.45 861 25.43 -7.2 19.1 71 -11.6 11.1
12:50 1031 30.45 861 25.43 -7.4 18.6 72 -11.7 10.9
12:55 1031 30.45 861 25.43 -7.6 18.3 73 -11.6 11.1
13:00 1031 30.45 861 25.43 -7.5 18.4 73 -11.6 11.1
13:05 1031 30.45 861 25.43 -7.1 19.3 70 -11.6 11.1
13:10 1031 30.45 861 25.43 -6.5 20.2 69 -11.4 11.5
13:15 1031 30.45 861 25.43 -6.4 20.5 67 -11.5 11.3
13:20 1031 30.45 861 25.43 -6.1 21 65 -11.6 11.1
13:25 1031 30.45 861 25.43 -6.7 19.9 68 -11.7 10.9
13:30 1031 30.45 860 25.4 -6.2 20.8 65 -11.8 10.8
13:35 1031 30.45 861 25.43 -5.9 21.4 66 -11.3 11.6
13:40 1031 30.45 860 25.4 -5.8 21.5 63 -11.8 10.8
13:45 1031 30.45 860 25.4 -4.8 23.4 57 -12 10.4
13:50 1031 30.45 860 25.4 -4.1 24.7 55 -11.8 10.8
13:55 1031 30.45 860 25.4 -3.9 25 52 -12.3 9.8
14:00 1031 30.45 860 25.4 -4.8 23.3 54 -12.7 9.1
14:05 1031 30.45 860 25.4 -4.4 24 52 -12.9 8.8
14:10 1031 30.45 860 25.4 -4.2 24.4 51 -12.8 9
14:15 1031 30.45 860 25.4 -3.9 24.9 55 -11.6 11.1
14:20 1031 30.45 860 25.4 -5 22.9 61 -11.4 11.5
14:25 1031 30.45 860 25.4 -5.7 21.8 62 -11.8 10.7
14:30 1031 30.45 860 25.4 -6.6 20.1 66 -11.9 10.6
14:35 1031 30.45 860 25.4 -7.1 19.3 68 -12.1 10.2
14:40 1031 30.45 860 25.4 -7.4 18.8 68 -12.3 9.9
14:45 1031 30.45 860 25.4 -7.6 18.2 69 -12.4 9.6
14:50 1031 30.45 860 25.4 -8.2 17.2 70 -12.7 9.1
14:55 1031 30.45 860 25.4 -9 15.8 73 -13.1 8.5
15:00 1031 30.45 860 25.4 -8.9 16 73 -12.9 8.8
15:05 1031 30.45 861 25.43 -8.6 16.5 72 -12.9 8.8
15:10 1031 30.45 861 25.43 -8.5 16.7 71 -12.9 8.9
15:15 1031 30.45 861 25.43 -8.2 17.2 69 -12.9 8.7
15:20 1031 30.45 861 25.43 -8.3 17.1 70 -12.8 9
15:25 1031 30.45 861 25.43 -7.8 17.9 67 -12.9 8.7
15:30 1031 30.45 861 25.43 -8.5 16.7 71 -12.9 8.9
15:35 1031 30.45 861 25.43 -8.7 16.4 70 -13.2 8.2
15:40 1031 30.45 861 25.43 -8.4 16.9 68 -13.3 8.1
15:45 1031 30.45 861 25.43 -8.4 16.9 69 -13.2 8.2
15:50 1031 30.45 861 25.43 -8.4 16.9 67 -13.4 7.8
15:55 1031 30.45 861 25.43 -8.3 17.1 67 -13.3 8
16:00 1031 30.45 861 25.43 -8.3 17.1 68 -13.2 8.2
16:05 1031 30.45 861 25.43 -8.2 17.2 69 -13 8.5
16:10 1031 30.45 861 25.43 -8.3 17 69 -13.1 8.5
16:15 1031 30.45 861 25.43 -8.2 17.2 68 -13.1 8.4
16:20 1031 30.45 861 25.43 -7.8 17.9 68 -12.8 9
16:25 1031 30.45 861 25.43 -7.7 18.1 69 -12.5 9.4
16:30 1032 30.47 861 25.43 -7.8 17.9 69 -12.5 9.5
16:35 1032 30.47 861 25.43 -8.1 17.4 70 -12.7 9.2
16:40 1031 30.45 861 25.43 -8.2 17.2 71 -12.6 9.4
16:45 1031 30.45 861 25.43 -8.3 17 72 -12.5 9.4
16:50 1031 30.45 861 25.43 -8.4 16.8 72 -12.7 9.2
16:55 1031 30.45 861 25.43 -8.5 16.7 72 -12.6 9.3
17:00 1032 30.47 861 25.43 -8.6 16.5 73 -12.6 9.4
17:05 1032 30.47 861 25.43 -8.6 16.6 73 -12.6 9.2
17:10 1032 30.47 861 25.43 -8.6 16.5 73 -12.6 9.4
17:15 1032 30.47 861 25.43 -8.6 16.5 72 -12.7 9.1
17:20 1032 30.47 861 25.43 -8.7 16.4 74 -12.5 9.5
17:25 1032 30.47 861 25.43 -8.7 16.3 74 -12.5 9.5
17:30 1031 30.45 861 25.43 -9.1 15.7 76 -12.5 9.4
17:35 1031 30.45 861 25.43 -9.6 14.8 76 -13 8.6
17:40 1031 30.45 861 25.43 -9.8 14.4 77 -13.1 8.5
17:45 1031 30.45 861 25.43 -10 14 78 -13.1 8.4
17:50 1032 30.47 861 25.43 -9.9 14.2 78 -13 8.5
17:55 1031 30.45 861 25.43 -9.8 14.4 77 -13.1 8.5
18:00 1031 30.45 861 25.43 -10.1 13.9 79 -13.1 8.4
18:05 1032 30.47 861 25.43 -9.9 14.2 77 -13.2 8.2
18:10 1032 30.47 861 25.43 -10.1 13.8 77 -13.4 7.9
18:15 1031 30.45 861 25.43 -10.6 12.9 79 -13.6 7.5
18:20 1032 30.47 861 25.43 -11.1 12.1 80 -13.9 7
18:25 1032 30.47 861 25.43 -10.7 12.7 78 -13.8 7.2
18:30 1031 30.45 861 25.43 -10.7 12.8 78 -13.8 7.2
18:35 1031 30.45 861 25.43 -10.8 12.7 78 -13.8 7.1
18:40 1031 30.45 861 25.43 -10.7 12.7 78 -13.8 7.2
18:45 1031 30.45 860 25.4 -10.6 12.9 78 -13.7 7.3
18:50 1031 30.45 861 25.43 -10.6 13 78 -13.7 7.4
18:55 1031 30.45 861 25.43 -10.6 13 78 -13.7 7.4
19:00 1032 30.47 861 25.43 -10.5 13.1 77 -13.7 7.3
19:05 1032 30.47 861 25.43 -10.5 13.2 77 -13.8 7.2
19:10 1032 30.47 861 25.43 -10.5 13.1 77 -13.9 7
19:15 1032 30.47 861 25.43 -10.4 13.2 75 -14.1 6.6
19:20 1032 30.47 861 25.43 -10.8 12.5 76 -14.3 6.2
19:25 1032 30.47 861 25.43 -10.8 12.5 77 -14.1 6.6
19:30 1032 30.47 861 25.43 -10.5 13 75 -14.1 6.6
19:35 1032 30.47 861 25.43 -10.7 12.7 75 -14.3 6.3
19:40 1032 30.47 861 25.43 -10.9 12.4 76 -14.4 6.2
19:45 1032 30.47 861 25.43 -11 12.1 73 -15 4.9
19:50 1032 30.47 861 25.43 -11.3 11.8 75 -14.9 5.1
19:55 1032 30.47 861 25.43 -11.1 11.9 73 -15 4.9
20:00 1032 30.47 861 25.43 -11.1 12.1 73 -15 5
20:05 1032 30.47 861 25.43 -11.1 12 73 -15.1 4.8
20:10 1032 30.47 861 25.43 -11 12.1 73 -15 4.9
20:15 1032 30.47 861 25.43 -10.9 12.5 71 -15.1 4.8
20:20 1032 30.47 861 25.43 -10.9 12.4 72 -15.1 4.9
20:25 1032 30.47 861 25.43 -10.8 12.5 71 -15.1 4.9
20:30 1032 30.47 861 25.43 -11 12.3 72 -15.2 4.7
20:35 1032 30.47 861 25.43 -11.1 12 71 -15.3 4.4
20:40 1032 30.47 861 25.43 -11.4 11.6 72 -15.5 4.2
20:45 1032 30.47 861 25.43 -11.5 11.4 73 -15.4 4.3
20:50 1031 30.45 861 25.43 -11.4 11.5 73 -15.4 4.3
20:55 1031 30.45 861 25.43 -11.6 11.1 72 -15.6 3.9
21:00 1031 30.45 860 25.4 -11.8 10.9 73 -15.7 3.8
21:05 1031 30.45 860 25.4 -11.8 10.7 73 -15.7 3.7
21:10 1031 30.45 860 25.4 -11.6 11.2 73 -15.5 4
21:15 1031 30.45 860 25.4 -11.5 11.3 72 -15.6 3.9
21:20 1031 30.45 860 25.4 -11.7 11 72 -15.8 3.6
21:25 1031 30.45 860 25.4 -11.6 11.2 72 -15.7 3.7
21:30 1031 30.45 860 25.4 -11.5 11.2 71 -15.8 3.6
21:35 1031 30.45 860 25.4 -11.5 11.3 71 -15.7 3.7
21:40 1031 30.45 860 25.4 -11.4 11.4 70 -15.8 3.5
21:45 1031 30.45 860 25.4 -11.7 11 72 -15.8 3.5
21:50 1031 30.45 860 25.4 -11.9 10.5 73 -15.9 3.5
21:55 1031 30.45 860 25.4 -12 10.4 73 -15.9 3.5
22:00 1031 30.45 860 25.4 -12 10.5 74 -15.7 3.7
22:05 1031 30.45 860 25.4 -12.1 10.2 74 -15.8 3.6
22:10 1031 30.45 860 25.4 -12.3 10 74 -16 3.3
22:15 1031 30.45 860 25.4 -12.3 9.8 74 -16.1 3.1
22:20 1031 30.45 860 25.4 -12.3 9.8 74 -16.1 3
22:25 1031 30.45 860 25.4 -12.5 9.6 74 -16.2 2.9
22:30 1031 30.45 860 25.4 -12.4 9.7 73 -16.3 2.7
22:35 1031 30.45 860 25.4 -12.2 10 73 -16.1 3
22:40 1031 30.45 860 25.4 -11.8 10.7 72 -16 3.2
22:45 1031 30.45 860 25.4 -11.4 11.6 70 -15.8 3.6
22:50 1031 30.45 860 25.4 -11.6 11.2 69 -16.1 3.1
22:55 1031 30.45 860 25.4 -11.8 10.7 70 -16.2 2.9
23:00 1031 30.45 860 25.4 -12.1 10.2 72 -16.2 2.9
23:05 1031 30.45 860 25.4 -12.4 9.8 73 -16.3 2.7
23:10 1031 30.45 860 25.4 -12.4 9.7 73 -16.3 2.7
23:15 1031 30.45 860 25.4 -12.6 9.4 73 -16.4 2.4
23:20 1031 30.45 860 25.4 -12.6 9.3 73 -16.5 2.4
23:25 1031 30.45 860 25.4 -12.5 9.5 73 -16.4 2.5
23:30 1031 30.45 860 25.4 -12.5 9.5 74 -16.3 2.7
23:35 1031 30.45 860 25.4 -12.6 9.3 74 -16.3 2.6
23:40 1031 30.45 860 25.4 -12.8 8.9 74 -16.5 2.3
23:45 1031 30.45 860 25.4 -13.1 8.4 75 -16.7 2
23:50 1031 30.45 860 25.4 -13.3 8 75 -16.8 1.8
23:55 1031 30.45 860 25.4 -13.2 8.3 74 -16.9 1.6
24:00 1031 30.45 860 25.4 -13.2 8.2 74 -16.8 1.7